Latest Weather Observations for Daly Waters

IDD60801

Issued at 4:05 pm CST Thursday 28 August 2014 (issued every 30 minutes, with the page automatically refreshed every 10 minutes)

About weather observations | Map of weather stations | Latest weather observations for NT | Other Formats
Station Details ID: 014626 Name: DALY WATERS AIRSTRIP Lat: -16.26 Lon: 133.38 Height: 209.84 m
Data from the previous 72 hours. | See also: Recent months at Daly Waters
Date/Time
CST
Temp
°C
App
Temp
°C
Dew
Point
Rel
Hum
%
Delta-T
°C
Wind Press
QNH
hPa
Press
MSL
hPa
Rain
since 9 am
mm
Dir
 
Spd
km/h
Gust
km/h
Spd
kts
Gust
kts
28/04:00pm 30.9 26.0 -7.1 8 16.3 E 11 22 6 12 1014.4 1013.5 0.0
28/03:30pm 30.8 26.3 -7.2 8 16.3 ESE 9 17 5 9 1014.6 1013.8 0.0
28/03:00pm 30.4 25.8 -7.5 8 16.1 E 9 20 5 11 1014.8 1014.0 0.0
28/02:30pm 30.8 25.6 -5.7 9 16.0 ESE 13 22 7 12 1015.2 1014.4 0.0
28/02:00pm 30.7 25.5 -5.8 9 16.0 E 13 26 7 14 1015.7 1014.9 0.0
28/01:30pm 29.9 25.1 -6.4 9 15.6 E 11 20 6 11 1016.2 1015.4 0.0
28/01:00pm 30.2 24.8 -4.8 10 15.6 E 15 32 8 17 1016.8 1016.0 0.0
28/12:30pm 29.0 23.8 -5.7 10 15.0 E 13 30 7 16 1017.4 1016.6 0.0
28/12:00pm 28.3 23.5 -6.2 10 14.7 E 11 30 6 16 1017.8 1017.0 0.0
28/11:30am 27.4 21.1 -5.6 11 14.1 SE 19 28 10 15 1018.3 1017.5 0.0
28/11:00am 27.3 21.8 -5.7 11 14.1 E 15 22 8 12 1018.9 1018.1 0.0
28/10:30am 25.9 20.5 -4.6 13 13.1 E 15 26 8 14 1019.4 1018.6 0.0
28/10:00am 24.1 19.0 -5.0 14 12.2 E 13 20 7 11 1019.5 1018.7 0.0
28/09:30am 21.4 15.9 -5.4 16 10.9 ESE 15 28 8 15 1019.5 1018.7 0.0
28/09:00am 19.8 14.7 -5.2 18 10.0 ESE 13 20 7 11 1019.4 1018.6 0.0
28/08:30am 17.3 11.8 -5.8 20 8.9 ESE 15 20 8 11 1019.2 1018.4 0.0
28/08:00am 13.6 9.8 -6.0 25 7.2 SSE 6 11 3 6 1019.2 1018.4 0.0
28/07:30am 8.6 6.0 -4.6 39 4.7 CALM 0 4 0 2 1019.0 1018.2 0.0
28/07:00am 5.2 1.8 -4.9 48 3.4 S 4 6 2 3 1018.6 1017.7 0.0
28/06:30am 6.9 2.9 -7.5 35 4.7 SE 6 7 3 4 1018.2 1017.4 0.0
28/06:00am 9.8 5.8 -7.4 29 5.8 ESE 6 7 3 4 1018.1 1017.3 0.0
28/05:30am 9.1 5.2 -6.7 32 5.4 SE 6 7 3 4 1017.7 1016.9 0.0
28/05:00am 7.3 3.4 -4.4 43 4.2 SE 7 9 4 5 1017.6 1016.8 0.0
28/04:30am 5.2 1.6 -3.8 52 3.1 SE 6 7 3 4 1017.5 1016.7 0.0
28/04:00am 5.7 2.9 -3.6 51 3.3 SE 2 4 1 2 1017.5 1016.7 0.0
28/03:30am 6.6 3.6 -4.8 44 4.0 SE 2 4 1 2 1017.5 1016.7 0.0
28/03:00am 8.1 4.7 -5.3 38 4.7 SE 4 4 2 2 1017.6 1016.8 0.0
28/02:30am 9.4 5.6 -5.3 35 5.2 SE 6 17 3 9 1017.7 1016.9 0.0
28/02:00am 8.9 5.1 -5.7 35 5.1 ESE 6 7 3 4 1017.8 1017.0 0.0
28/01:30am 10.3 6.7 -6.9 29 6.0 ESE 4 6 2 3 1018.0 1017.2 0.0
28/01:00am 14.2 10.2 -7.2 22 7.7 E 6 9 3 5 1018.2 1017.4 0.0
28/12:30am 16.4 12.3 -6.6 20 8.6 NNE 7 13 4 7 1018.2 1017.4 0.0
28/12:00am 17.5 13.0 -7.0 18 9.2 SE 9 15 5 8 1017.5 1016.7 0.0
 
Date/Time
CST
Temp
°C
App
Temp
°C
Dew
Point
Rel
Hum
%
Delta-T
°C
Wind Press
QNH
hPa
Press
MSL
hPa
Rain
since 9 am
mm
Dir
 
Spd
km/h
Gust
km/h
Spd
kts
Gust
kts
27/11:30pm 18.2 13.7 -6.5 18 9.5 SE 9 17 5 9 1017.4 1016.6 0.0
27/11:00pm 17.9 13.8 -6.7 18 9.4 SE 7 11 4 6 1017.4 1016.6 0.0
27/10:30pm 18.9 14.5 -5.9 18 9.7 SE 9 15 5 8 1017.4 1016.6 0.0
27/10:20pm 18.2 13.9 -5.1 20 9.2 SE 9 15 5 8 1017.4 1016.6 0.0
27/10:00pm 13.1 9.4 -5.0 28 6.8 SE 6 9 3 5 1017.4 1016.6 0.0
27/09:30pm 11.7 8.9 -3.6 34 5.8 E 2 6 1 3 1017.2 1016.4 0.0
27/09:00pm 13.0 10.6 -3.3 32 6.3 CALM 0 0 0 0 1017.1 1016.3 0.0
27/08:30pm 14.0 10.3 -4.2 28 7.0 SE 6 7 3 4 1016.5 1015.7 0.0
27/08:00pm 16.0 13.5 -4.0 25 7.9 CALM 0 4 0 2 1016.0 1015.2 0.0
27/07:30pm 18.2 14.7 -6.5 18 9.5 SSE 4 7 2 4 1015.5 1014.7 0.0
27/07:00pm 20.9 16.9 -7.6 14 11.0 SE 6 9 3 5 1015.0 1014.2 0.0
27/06:30pm 25.6 21.7 -7.0 11 13.4 ESE 6 7 3 4 1014.7 1013.9 0.0
27/06:00pm 28.7 24.2 -7.3 9 15.1 SE 9 15 5 8 1014.4 1013.5 0.0
27/05:30pm 29.9 25.1 -6.4 9 15.6 ESE 11 19 6 10 1014.2 1013.3 0.0
27/05:00pm 30.6 25.4 -5.8 9 15.9 E 13 24 7 13 1014.0 1013.1 0.0
27/04:30pm 30.8 26.8 -5.7 9 16.0 SE 7 15 4 8 1014.0 1013.1 0.0
27/04:00pm 31.1 26.4 -5.5 9 16.2 E 11 19 6 10 1014.0 1013.1 0.0
27/03:30pm 30.6 25.4 -5.8 9 15.9 E 13 24 7 13 1014.1 1013.2 0.0
27/03:00pm 31.3 26.6 -5.3 9 16.3 E 11 20 6 11 1014.3 1013.4 0.0
27/02:30pm 30.6 25.6 -4.4 10 15.7 ESE 13 22 7 12 1014.7 1013.9 0.0
27/02:00pm 30.6 25.2 -4.4 10 15.7 E 15 30 8 16 1015.3 1014.5 0.0
27/01:30pm 29.4 23.9 -5.4 10 15.2 ESE 15 24 8 13 1015.8 1015.0 0.0
27/01:00pm 30.1 25.2 -3.6 11 15.3 ESE 13 24 7 13 1016.5 1015.7 0.0
27/12:30pm 28.7 23.7 -4.6 11 14.6 ESE 13 22 7 12 1017.0 1016.2 0.0
27/12:00pm 28.3 23.0 -3.8 12 14.3 ESE 15 30 8 16 1017.7 1016.9 0.0
27/11:30am 27.4 22.0 -4.5 12 13.9 SE 15 24 8 13 1018.1 1017.3 0.0
27/11:00am 26.5 20.4 -4.1 13 13.4 ESE 19 33 10 18 1018.7 1017.8 0.0
27/10:30am 26.0 21.0 -4.5 13 13.1 ESE 13 20 7 11 1019.0 1018.2 0.0
27/10:00am 24.5 18.3 -4.7 14 12.4 ESE 19 30 10 16 1019.1 1018.3 0.0
27/09:30am 22.9 17.0 -6.0 14 11.7 ESE 17 30 9 16 1019.1 1018.3 0.0
27/09:00am 20.9 14.6 -5.8 16 10.7 ESE 19 32 10 17 1019.1 1018.3 0.0
27/08:30am 19.4 15.2 -4.1 20 9.6 SE 9 17 5 9 1018.9 1018.1 0.0
27/08:00am 17.4 13.3 -3.4 24 8.5 SE 9 19 5 10 1018.4 1017.6 0.0
27/07:30am 16.7 12.4 -4.5 23 8.3 SSE 9 15 5 8 1018.1 1017.3 0.0
27/07:00am 17.2 12.5 -5.3 21 8.8 SE 11 17 6 9 1017.8 1017.0 0.0
27/06:30am 18.1 13.0 -5.2 20 9.2 ESE 13 20 7 11 1017.7 1016.9 0.0
27/06:00am 18.6 13.5 -4.8 20 9.3 ESE 13 22 7 12 1017.5 1016.7 0.0
27/05:30am 18.7 13.7 -4.0 21 9.2 ESE 13 22 7 12 1017.1 1016.3 0.0
27/05:00am 15.8 12.1 -2.6 28 7.5 SE 7 9 4 5 1016.9 1016.1 0.0
27/04:30am 15.5 12.0 -2.9 28 7.4 ESE 6 9 3 5 1016.7 1015.9 0.0
27/04:00am 17.3 13.2 -2.9 25 8.3 ESE 9 15 5 8 1016.5 1015.7 0.0
27/03:30am 17.3 13.7 -2.4 26 8.2 ESE 7 13 4 7 1016.4 1015.6 0.0
27/03:00am 18.1 14.2 -1.7 26 8.4 SE 9 15 5 8 1016.2 1015.4 0.0
27/02:30am 16.1 12.8 -1.5 30 7.3 SE 6 9 3 5 1016.5 1015.7 0.0
27/02:00am 16.7 13.2 -1.4 29 7.6 SSE 7 11 4 6 1016.6 1015.8 0.0
27/01:30am 15.9 12.4 -1.2 31 7.2 SSE 7 9 4 5 1016.8 1016.0 0.0
27/01:00am 16.8 13.4 -1.8 28 7.8 SE 6 7 3 4 1017.1 1016.3 0.0
27/12:30am 19.1 14.9 -0.8 26 8.7 ENE 11 17 6 9 1017.2 1016.4 0.0
27/12:00am 18.8 15.3 -1.1 26 8.6 SSE 7 11 4 6 1016.6 1015.8 0.0
 
Date/Time
CST
Temp
°C
App
Temp
°C
Dew
Point
Rel
Hum
%
Delta-T
°C
Wind Press
QNH
hPa
Press
MSL
hPa
Rain
since 9 am
mm
Dir
 
Spd
km/h
Gust
km/h
Spd
kts
Gust
kts
26/11:30pm 19.6 16.1 -1.5 24 9.1 SSE 7 9 4 5 1016.5 1015.7 0.0
26/11:00pm 20.6 17.3 -1.2 23 9.6 SE 6 13 3 7 1016.6 1015.8 0.0
26/10:30pm 21.0 17.5 -1.5 22 9.8 SSE 7 13 4 7 1016.6 1015.8 0.0
26/10:00pm 20.8 17.0 -1.1 23 9.6 SSE 9 13 5 7 1016.6 1015.8 0.0
26/09:30pm 16.4 13.2 -0.8 31 7.3 SSE 6 9 3 5 1016.5 1015.7 0.0
26/09:00pm 16.7 13.4 -1.4 29 7.6 SSE 6 7 3 4 1016.2 1015.4 0.0
26/08:30pm 18.6 15.2 -1.8 25 8.7 SSE 6 7 3 4 1015.9 1015.1 0.0
26/08:00pm 22.2 18.6 -1.8 20 10.5 SSE 7 9 4 5 1015.6 1014.8 0.0
26/07:30pm 23.1 19.4 -2.5 18 11.2 SSE 7 9 4 5 1015.3 1014.5 0.0
26/07:00pm 25.1 21.4 -2.5 16 12.3 SSE 7 9 4 5 1014.8 1014.0 0.0
26/06:30pm 26.9 23.2 -2.8 14 13.3 SE 7 15 4 8 1014.4 1013.5 0.0
26/06:00pm 28.9 24.9 -2.3 13 14.3 ESE 9 15 5 8 1014.1 1013.2 0.0
26/05:30pm 30.0 26.5 -1.4 13 14.8 E 7 13 4 7 1013.8 1012.9 0.0
26/05:00pm 30.6 26.3 -2.0 12 15.2 ESE 11 22 6 12 1013.7 1012.8 0.0
26/04:30pm 30.8 26.1 -1.9 12 15.3 ESE 13 26 7 14 1013.8 1012.9 0.0
26/04:00pm 31.2 26.2 -1.5 12 15.5 ESE 15 26 8 14 1014.0 1013.1 0.0
26/03:30pm 31.3 25.5 -1.5 12 15.5 ENE 19 26 10 14 1014.3 1013.4 0.0
26/03:00pm 30.3 25.2 -2.2 12 15.1 ESE 15 26 8 14 1014.6 1013.8 0.0
26/02:30pm 30.2 24.3 -2.3 12 15.1 ESE 19 24 10 13 1015.0 1014.2 0.0
26/02:00pm 29.9 24.7 -2.6 12 15.0 ESE 15 28 8 15 1015.3 1014.5 0.0
26/01:30pm 29.9 24.5 -1.5 13 14.7 E 17 32 9 17 1015.8 1015.0 0.0
26/01:00pm 29.3 24.7 -0.9 14 14.3 E 13 26 7 14 1016.5 1015.7 0.0
26/12:30pm 29.0 23.8 -0.2 15 13.9 SE 17 28 9 15 1017.0 1016.2 0.0
26/12:00pm 28.8 23.5 -0.4 15 13.8 ESE 17 35 9 19 1017.7 1016.9 0.0
26/11:30am 28.1 22.3 -0.1 16 13.4 ESE 20 35 11 19 1018.2 1017.4 0.0
26/11:00am 26.9 20.7 -0.2 17 12.7 SE 22 33 12 18 1018.4 1017.6 0.0
26/10:30am 26.4 20.8 0.2 18 12.3 E 19 37 10 20 1018.9 1018.1 0.0
26/10:00am 25.2 20.0 0.0 19 11.7 ESE 17 32 9 17 1019.1 1018.3 0.0
26/09:30am 23.7 18.8 -0.6 20 11.0 ESE 15 30 8 16 1019.0 1018.2 0.0
26/09:00am 22.5 17.2 -0.9 21 10.5 ESE 17 28 9 15 1018.9 1018.1 0.0
26/08:30am 20.7 15.7 -1.1 23 9.6 SE 15 28 8 15 1018.8 1018.0 0.0
26/08:00am 19.2 14.6 -1.3 25 8.9 SE 13 24 7 13 1018.4 1017.6 0.0
26/07:30am 17.7 13.4 -1.5 27 8.1 SE 11 19 6 10 1018.2 1017.4 0.0
26/07:00am 16.6 12.3 -1.5 29 7.6 SSE 11 19 6 10 1017.9 - 0.0
26/06:30am 16.1 12.2 -1.5 30 7.3 SSE 9 19 5 10 1017.6 1016.8 0.0
26/06:00am 16.0 12.1 -1.5 30 7.3 SE 9 17 5 9 1017.5 1016.7 0.0
26/05:30am 16.2 12.3 -1.4 30 7.4 SSE 9 17 5 9 1017.3 1016.5 0.0
26/05:00am 16.0 12.5 -1.5 30 7.3 SSE 7 11 4 6 1017.2 - 0.0
26/04:30am 16.3 12.8 -1.7 29 7.5 SSE 7 11 4 6 1017.1 1016.3 0.0
26/04:00am 17.2 13.3 -1.4 28 7.9 SE 9 15 5 8 1017.2 - 0.0
26/03:30am 17.6 13.7 -1.6 27 8.1 SE 9 17 5 9 1017.2 1016.4 0.0
26/03:00am 17.6 13.6 -2.1 26 8.2 SE 9 17 5 9 1017.3 1016.5 0.0
26/02:30am 17.9 13.9 -2.4 25 8.5 SE 9 15 5 8 1017.3 1016.5 0.0
26/02:00am 18.3 14.3 -2.6 24 8.7 SE 9 17 5 9 1017.4 - 0.0
26/01:30am 18.2 14.2 -2.1 25 8.5 SE 9 15 5 8 1017.5 1016.7 0.0
26/01:00am 18.0 14.4 -2.3 25 8.5 SSE 7 11 4 6 1017.6 - 0.0
26/12:30am 18.3 14.6 -2.6 24 8.7 SSE 7 11 4 6 1017.7 1016.9 0.0
26/12:00am 19.1 15.4 -2.5 23 9.1 SSE 7 15 4 8 1017.8 1017.0 0.0
 
Date/Time
CST
Temp
°C
App
Temp
°C
Dew
Point
Rel
Hum
%
Delta-T
°C
Wind Press
QNH
hPa
Press
MSL
hPa
Rain
since 9 am
mm
Dir
 
Spd
km/h
Gust
km/h
Spd
kts
Gust
kts
25/11:30pm 19.8 15.8 -2.5 22 9.4 SSE 9 13 5 7 1017.8 1017.0 0.0
25/11:00pm 20.6 16.6 -2.5 21 9.9 SSE 9 17 5 9 1017.8 - 0.0
25/10:30pm 21.1 17.1 -2.0 21 10.0 SSE 9 17 5 9 1017.8 1017.0 0.0
25/10:00pm 21.7 17.8 -1.6 21 10.2 SSE 9 17 5 9 1017.6 - 0.0
25/09:30pm 22.0 18.1 -1.3 21 10.3 SSE 9 15 5 8 1017.5 1016.7 0.0
25/09:00pm 21.2 17.7 -1.3 22 9.9 SSE 7 11 4 6 1017.3 1016.5 0.0
25/08:30pm 20.4 16.9 -2.6 21 9.8 S 6 9 3 5 1017.1 1016.3 0.0
25/08:00pm 22.8 19.1 -2.7 18 11.1 SSE 7 9 4 5 1016.9 - 0.0
25/07:30pm 24.1 20.5 -2.4 17 11.7 SE 7 11 4 6 1016.5 1015.7 0.0
25/07:00pm 25.3 21.6 -3.2 15 12.5 SE 7 13 4 7 1016.2 - 0.0
25/06:30pm 26.6 22.5 -3.1 14 13.2 ESE 9 17 5 9 1015.9 1015.1 0.0
25/06:00pm 28.3 23.1 -2.7 13 14.1 ESE 15 28 8 15 1015.7 1014.9 0.0
25/05:30pm 29.2 24.1 -2.0 13 14.4 ESE 15 24 8 13 1015.6 1014.8 0.0
25/05:00pm 29.8 24.8 -1.5 13 14.7 SE 15 28 8 15 1015.4 - 0.0
25/04:30pm 30.1 24.7 -1.3 13 14.8 SE 17 28 9 15 1015.3 1014.5 0.0

Other Formats:

Comma delimited format used in spreadsheet applications
http://www.bom.gov.au/fwo/IDD60801/IDD60801.94234.axf

JavaScript Object Notation format (JSON) in row-major order
http://www.bom.gov.au/fwo/IDD60801/IDD60801.94234.json